Time,TemperatureF,DewpointF,PressureIn,WindDirection,WindDirectionDegrees,WindSpeedMPH,WindSpeedGustMPH,Humidity,HourlyPrecipIn,Conditions,Clouds,dailyrainin,SoftwareType,DateUTC
2013-06-02 00:01:00,70.7,57.9,29.69,West,275,0.0,0.0,64,0.00,CLR,,0.00,WeatherDisplay:10.37,2013-06-02 07:01:00,
2013-06-02 00:06:00,70.5,57.3,29.69,West,276,0.0,0.0,63,0.00,CLR,,0.00,WeatherDisplay:10.37,2013-06-02 07:06:00,
2013-06-02 00:11:00,70.3,57.1,29.69,West,276,0.0,0.0,63,0.00,CLR,,0.00,WeatherDisplay:10.37,2013-06-02 07:11:00,
2013-06-02 00:16:00,70.2,56.6,29.69,West,276,0.0,0.0,62,0.00,CLR,,0.00,WeatherDisplay:10.37,2013-06-02 07:16:00,
2013-06-02 00:21:00,70.9,55.9,29.69,West,276,0.0,0.0,59,0.00,CLR,,0.00,WeatherDisplay:10.37,2013-06-02 07:21:00,
2013-06-02 00:26:00,71.4,56.3,29.69,West,276,0.0,0.0,59,0.00,CLR,,0.00,WeatherDisplay:10.37,2013-06-02 07:26:00,
2013-06-02 00:31:00,71.5,55.9,29.69,West,276,0.0,0.0,58,0.00,CLR,,0.00,WeatherDisplay:10.37,2013-06-02 07:31:00,
2013-06-02 00:36:00,71.5,55.9,29.69,West,276,0.0,0.0,58,0.00,CLR,,0.00,WeatherDisplay:10.37,2013-06-02 07:36:00,
2013-06-02 00:41:00,72.0,54.9,29.68,West,276,0.0,0.0,55,0.00,CLR,,0.00,WeatherDisplay:10.37,2013-06-02 07:41:00,
2013-06-02 00:46:00,72.8,54.1,29.68,West,276,0.0,0.0,52,0.00,CLR,,0.00,WeatherDisplay:10.37,2013-06-02 07:46:00,
2013-06-02 00:51:00,73.4,54.2,29.68,West,275,0.0,0.0,51,0.00,CLR,,0.00,WeatherDisplay:10.37,2013-06-02 07:51:00,
2013-06-02 00:56:00,73.6,53.8,29.68,West,276,0.0,0.0,50,0.00,CLR,,0.00,WeatherDisplay:10.37,2013-06-02 07:56:00,
2013-06-02 01:01:00,73.8,54.0,29.68,West,276,0.0,0.0,50,0.00,CLR,,0.00,WeatherDisplay:10.37,2013-06-02 08:01:00,
2013-06-02 01:06:00,74.0,53.6,29.68,West,276,0.0,0.0,49,0.00,CLR,,0.00,WeatherDisplay:10.37,2013-06-02 08:06:00,
2013-06-02 01:11:00,74.0,53.6,29.67,West,275,0.0,0.0,49,0.00,CLR,,0.00,WeatherDisplay:10.37,2013-06-02 08:11:00,
2013-06-02 01:16:00,74.0,53.6,29.67,West,276,0.0,0.0,49,0.00,CLR,,0.00,WeatherDisplay:10.37,2013-06-02 08:16:00,
2013-06-02 01:21:00,74.0,53.6,29.67,West,276,0.0,0.0,49,0.00,CLR,,0.00,WeatherDisplay:10.37,2013-06-02 08:21:00,
2013-06-02 01:26:00,73.9,53.5,29.67,West,276,0.0,0.0,49,0.00,CLR,,0.00,WeatherDisplay:10.37,2013-06-02 08:26:00,
2013-06-02 01:31:00,73.6,53.8,29.67,West,276,0.0,0.0,50,0.00,CLR,,0.00,WeatherDisplay:10.37,2013-06-02 08:31:00,
2013-06-02 01:36:00,73.1,53.4,29.67,West,276,0.0,0.0,50,0.00,CLR,,0.00,WeatherDisplay:10.37,2013-06-02 08:36:00,
2013-06-02 01:41:00,72.5,53.3,29.67,West,276,0.0,0.0,51,0.00,CLR,,0.00,WeatherDisplay:10.37,2013-06-02 08:41:00,
2013-06-02 01:46:00,72.1,53.5,29.67,West,275,0.0,0.0,52,0.00,CLR,,0.00,WeatherDisplay:10.37,2013-06-02 08:46:00,
2013-06-02 01:51:00,71.8,54.8,29.67,West,276,0.0,0.0,55,0.00,CLR,,0.00,WeatherDisplay:10.37,2013-06-02 08:51:00,
2013-06-02 01:56:00,71.4,54.4,29.67,West,276,0.0,0.0,55,0.00,CLR,,0.00,WeatherDisplay:10.37,2013-06-02 08:56:00,
2013-06-02 02:01:00,70.9,55.4,29.66,West,275,0.0,0.0,58,0.00,CLR,,0.00,WeatherDisplay:10.37,2013-06-02 09:01:00,
2013-06-02 02:06:00,70.3,54.8,29.66,West,275,0.0,0.0,58,0.00,CLR,,0.00,WeatherDisplay:10.37,2013-06-02 09:06:00,
2013-06-02 02:11:00,69.8,54.8,29.66,West,276,0.0,0.0,59,0.00,CLR,,0.00,WeatherDisplay:10.37,2013-06-02 09:11:00,
2013-06-02 02:16:00,69.4,54.0,29.66,West,276,0.0,0.0,58,0.00,CLR,,0.00,WeatherDisplay:10.37,2013-06-02 09:16:00,
2013-06-02 02:21:00,69.0,54.1,29.66,West,276,0.0,0.0,59,0.00,CLR,,0.00,WeatherDisplay:10.37,2013-06-02 09:21:00,
2013-06-02 02:26:00,68.7,53.8,29.66,West,276,0.0,0.0,59,0.00,CLR,,0.00,WeatherDisplay:10.37,2013-06-02 09:26:00,
2013-06-02 02:31:00,68.4,54.4,29.66,West,276,0.0,0.0,61,0.00,CLR,,0.00,WeatherDisplay:10.37,2013-06-02 09:31:00,
2013-06-02 02:36:00,68.2,54.7,29.66,West,276,0.0,0.0,62,0.00,CLR,,0.00,WeatherDisplay:10.37,2013-06-02 09:36:00,
2013-06-02 02:41:00,67.9,54.8,29.66,West,276,0.0,0.0,63,0.00,CLR,,0.00,WeatherDisplay:10.37,2013-06-02 09:41:00,
2013-06-02 02:46:00,67.6,55.0,29.66,West,276,0.0,0.0,64,0.00,CLR,,0.00,WeatherDisplay:10.37,2013-06-02 09:46:00,
2013-06-02 02:51:00,67.3,55.1,29.65,West,276,0.0,0.0,65,0.00,CLR,,0.00,WeatherDisplay:10.37,2013-06-02 09:51:00,
2013-06-02 02:56:00,67.0,54.8,29.65,West,276,0.0,0.0,65,0.00,CLR,,0.00,WeatherDisplay:10.37,2013-06-02 09:56:00,
2013-06-02 03:01:00,66.7,54.1,29.65,West,276,0.0,0.0,64,0.00,CLR,,0.00,WeatherDisplay:10.37,2013-06-02 10:01:00,
2013-06-02 03:06:00,66.5,53.5,29.65,West,276,0.0,0.0,63,0.00,CLR,,0.00,WeatherDisplay:10.37,2013-06-02 10:06:00,
2013-06-02 03:11:00,66.4,53.8,29.65,West,276,0.0,0.0,64,0.00,CLR,,0.00,WeatherDisplay:10.37,2013-06-02 10:11:00,
2013-06-02 03:16:00,66.6,54.0,29.65,West,276,0.0,0.0,64,0.00,CLR,,0.00,WeatherDisplay:10.37,2013-06-02 10:16:00,
2013-06-02 03:21:00,66.7,53.7,29.65,West,275,0.0,0.0,63,0.00,CLR,,0.00,WeatherDisplay:10.37,2013-06-02 10:21:00,
2013-06-02 03:26:00,66.7,53.7,29.65,West,275,0.0,0.0,63,0.00,CLR,,0.00,WeatherDisplay:10.37,2013-06-02 10:26:00,
2013-06-02 03:31:00,66.7,53.7,29.65,West,275,0.0,0.0,63,0.00,CLR,,0.00,WeatherDisplay:10.37,2013-06-02 10:31:00,
2013-06-02 03:36:00,66.7,54.6,29.65,West,276,0.0,0.0,65,0.00,CLR,,0.00,WeatherDisplay:10.37,2013-06-02 10:36:00,
2013-06-02 03:41:00,66.7,54.6,29.65,West,276,0.0,0.0,65,0.00,CLR,,0.00,WeatherDisplay:10.37,2013-06-02 10:41:00,
2013-06-02 03:46:00,66.6,54.9,29.65,West,276,0.0,0.0,66,0.00,CLR,,0.00,WeatherDisplay:10.37,2013-06-02 10:46:00,
2013-06-02 03:51:00,66.4,55.5,29.64,West,276,0.0,0.0,68,0.00,CLR,,0.00,WeatherDisplay:10.37,2013-06-02 10:51:00,
2013-06-02 03:56:00,66.2,55.3,29.64,West,276,0.0,0.0,68,0.00,CLR,,0.00,WeatherDisplay:10.37,2013-06-02 10:56:00,
2013-06-02 04:01:00,66.0,55.1,29.64,West,275,0.0,0.0,68,0.00,CLR,,0.00,WeatherDisplay:10.37,2013-06-02 11:01:00,
2013-06-02 04:06:00,65.7,55.2,29.64,West,276,0.0,0.0,69,0.00,CLR,,0.00,WeatherDisplay:10.37,2013-06-02 11:06:00,
2013-06-02 04:11:00,65.4,54.6,29.64,West,276,0.0,0.0,68,0.00,CLR,,0.00,WeatherDisplay:10.37,2013-06-02 11:11:00,
2013-06-02 04:16:00,65.1,54.7,29.64,West,276,0.0,0.0,69,0.00,CLR,,0.00,WeatherDisplay:10.37,2013-06-02 11:16:00,
2013-06-02 04:21:00,64.9,54.9,29.64,West,276,0.0,0.0,70,0.00,CLR,,0.00,WeatherDisplay:10.37,2013-06-02 11:21:00,
2013-06-02 04:26:00,64.8,54.8,29.64,West,276,0.0,0.0,70,0.00,CLR,,0.00,WeatherDisplay:10.37,2013-06-02 11:26:00,
2013-06-02 04:31:00,64.6,54.6,29.64,West,275,0.0,0.0,70,0.00,CLR,,0.00,WeatherDisplay:10.37,2013-06-02 11:31:00,
2013-06-02 04:36:00,64.5,54.9,29.64,West,275,0.0,0.0,71,0.00,CLR,,0.00,WeatherDisplay:10.37,2013-06-02 11:36:00,
2013-06-02 04:41:00,64.3,55.8,29.64,West,276,0.0,0.0,74,0.00,CLR,,0.00,WeatherDisplay:10.37,2013-06-02 11:41:00,
2013-06-02 04:46:00,64.3,56.2,29.64,West,276,0.0,0.0,75,0.00,CLR,,0.00,WeatherDisplay:10.37,2013-06-02 11:46:00,
2013-06-02 04:51:00,64.2,56.5,29.63,West,276,0.0,0.0,76,0.00,CLR,,0.00,WeatherDisplay:10.37,2013-06-02 11:51:00,
2013-06-02 04:56:00,64.0,55.9,29.63,West,276,0.0,0.0,75,0.00,CLR,,0.00,WeatherDisplay:10.37,2013-06-02 11:56:00,
2013-06-02 05:01:00,63.8,55.4,29.64,West,276,0.0,0.0,74,0.00,CLR,,0.00,WeatherDisplay:10.37,2013-06-02 12:01:00,
2013-06-02 05:06:00,63.6,54.8,29.64,West,276,0.0,0.0,73,0.00,CLR,,0.00,WeatherDisplay:10.37,2013-06-02 12:06:00,
2013-06-02 05:11:00,63.5,55.1,29.63,West,276,0.0,0.0,74,0.00,CLR,,0.00,WeatherDisplay:10.37,2013-06-02 12:11:00,
2013-06-02 05:16:00,63.4,54.6,29.64,West,276,0.0,0.0,73,0.00,CLR,,0.00,WeatherDisplay:10.37,2013-06-02 12:16:00,
2013-06-02 05:21:00,63.4,55.0,29.64,West,276,0.0,0.0,74,0.00,CLR,,0.00,WeatherDisplay:10.37,2013-06-02 12:21:00,
2013-06-02 05:26:00,63.5,55.1,29.64,West,275,0.0,0.0,74,0.00,CLR,,0.00,WeatherDisplay:10.37,2013-06-02 12:26:00,
2013-06-02 05:31:00,63.5,55.1,29.64,West,276,0.0,0.0,74,0.00,CLR,,0.00,WeatherDisplay:10.37,2013-06-02 12:31:00,
2013-06-02 05:36:00,63.4,55.0,29.64,West,276,0.0,0.0,74,0.00,CLR,,0.00,WeatherDisplay:10.37,2013-06-02 12:36:00,
2013-06-02 05:41:00,63.4,54.6,29.64,West,275,0.0,0.0,73,0.00,CLR,,0.00,WeatherDisplay:10.37,2013-06-02 12:41:00,
2013-06-02 05:46:00,63.3,54.5,29.64,West,276,0.0,0.0,73,0.00,CLR,,0.00,WeatherDisplay:10.37,2013-06-02 12:46:00,
2013-06-02 05:51:00,63.3,54.5,29.64,West,276,0.0,0.0,73,0.00,CLR,,0.00,WeatherDisplay:10.37,2013-06-02 12:51:00,
2013-06-02 05:56:00,63.4,54.2,29.64,West,275,0.0,0.0,72,0.00,CLR,,0.00,WeatherDisplay:10.37,2013-06-02 12:56:00,
2013-06-02 06:01:00,63.5,53.9,29.64,West,275,0.0,0.0,71,0.00,CLR,,0.00,WeatherDisplay:10.37,2013-06-02 13:01:00,
2013-06-02 06:06:00,63.4,53.8,29.64,West,276,0.0,0.0,71,0.00,CLR,,0.00,WeatherDisplay:10.37,2013-06-02 13:06:00,
2013-06-02 06:11:00,63.4,54.2,29.64,West,275,0.0,0.0,72,0.00,CLR,,0.00,WeatherDisplay:10.37,2013-06-02 13:11:00,
2013-06-02 06:16:00,63.4,54.6,29.65,West,276,0.0,0.0,73,0.00,CLR,,0.00,WeatherDisplay:10.37,2013-06-02 13:16:00,
2013-06-02 06:21:00,63.6,54.8,29.64,West,275,0.0,0.0,73,0.00,CLR,,0.00,WeatherDisplay:10.37,2013-06-02 13:21:00,
2013-06-02 06:26:00,63.7,54.9,29.65,West,276,0.0,0.0,73,0.00,CLR,,0.00,WeatherDisplay:10.37,2013-06-02 13:26:00,
2013-06-02 06:31:00,64.0,55.9,29.64,West,276,0.0,0.0,75,0.00,CLR,,0.00,WeatherDisplay:10.37,2013-06-02 13:31:00,
2013-06-02 06:36:00,64.2,56.1,29.65,West,276,0.0,0.0,75,0.00,CLR,,0.00,WeatherDisplay:10.37,2013-06-02 13:36:00,
2013-06-02 06:41:00,64.4,55.6,29.65,West,276,0.0,0.0,73,0.00,CLR,,0.00,WeatherDisplay:10.37,2013-06-02 13:41:00,
2013-06-02 06:46:00,64.6,55.7,29.65,West,275,0.0,0.0,73,0.00,CLR,,0.00,WeatherDisplay:10.37,2013-06-02 13:46:00,
2013-06-02 06:51:00,64.9,55.7,29.65,West,276,0.0,0.0,72,0.00,CLR,,0.00,WeatherDisplay:10.37,2013-06-02 13:51:00,
2013-06-02 06:56:00,65.2,55.9,29.65,West,276,0.0,0.0,72,0.00,CLR,,0.00,WeatherDisplay:10.37,2013-06-02 13:56:00,
2013-06-02 07:01:00,65.5,55.1,29.66,West,275,0.0,0.0,69,0.00,CLR,,0.00,WeatherDisplay:10.37,2013-06-02 14:01:00,
2013-06-02 07:06:00,66.4,55.9,29.66,West,276,0.0,0.0,69,0.00,CLR,,0.00,WeatherDisplay:10.37,2013-06-02 14:06:00,
2013-06-02 07:11:00,66.9,56.4,29.66,West,275,0.0,0.0,69,0.00,CLR,,0.00,WeatherDisplay:10.37,2013-06-02 14:11:00,
2013-06-02 07:16:00,67.3,54.7,29.66,West,276,0.0,0.0,64,0.00,CLR,,0.00,WeatherDisplay:10.37,2013-06-02 14:16:00,
2013-06-02 07:21:00,68.0,55.8,29.66,West,276,0.0,0.0,65,0.00,CLR,,0.00,WeatherDisplay:10.37,2013-06-02 14:21:00,
2013-06-02 07:26:00,68.4,55.3,29.66,West,275,0.0,0.0,63,0.00,CLR,,0.00,WeatherDisplay:10.37,2013-06-02 14:26:00,
2013-06-02 07:31:00,69.0,54.5,29.66,West,276,0.0,0.0,60,0.00,CLR,,0.00,WeatherDisplay:10.37,2013-06-02 14:31:00,
2013-06-02 07:36:00,69.6,56.0,29.66,West,276,0.0,0.0,62,0.00,CLR,,0.00,WeatherDisplay:10.37,2013-06-02 14:36:00,
2013-06-02 07:41:00,70.1,56.9,29.66,West,275,0.0,0.0,63,0.00,CLR,,0.00,WeatherDisplay:10.37,2013-06-02 14:41:00,
2013-06-02 07:46:00,70.5,55.5,29.66,West,276,0.0,0.0,59,0.00,CLR,,0.00,WeatherDisplay:10.37,2013-06-02 14:46:00,
2013-06-02 07:51:00,71.1,54.6,29.67,West,276,0.0,0.0,56,0.00,CLR,,0.00,WeatherDisplay:10.37,2013-06-02 14:51:00,
2013-06-02 07:56:00,71.9,53.8,29.66,West,276,0.0,0.0,53,0.00,CLR,,0.00,WeatherDisplay:10.37,2013-06-02 14:56:00,
2013-06-02 08:01:00,72.6,53.4,29.67,West,276,0.0,0.0,51,0.00,CLR,,0.00,WeatherDisplay:10.37,2013-06-02 15:01:00,
2013-06-02 08:06:00,73.2,53.4,29.67,West,275,0.0,0.0,50,0.00,CLR,,0.00,WeatherDisplay:10.37,2013-06-02 15:06:00,
2013-06-02 08:11:00,73.7,52.8,29.67,West,276,0.0,0.0,48,0.00,CLR,,0.00,WeatherDisplay:10.37,2013-06-02 15:11:00,
2013-06-02 08:16:00,74.3,53.9,29.66,West,276,0.0,0.0,49,0.00,CLR,,0.00,WeatherDisplay:10.37,2013-06-02 15:16:00,
2013-06-02 08:21:00,74.8,52.0,29.67,West,276,0.0,0.0,45,0.00,CLR,,0.00,WeatherDisplay:10.37,2013-06-02 15:21:00,
2013-06-02 08:26:00,75.6,53.4,29.66,West,276,0.0,0.0,46,0.00,CLR,,0.00,WeatherDisplay:10.37,2013-06-02 15:26:00,
2013-06-02 08:31:00,76.1,53.2,29.66,West,276,0.0,0.0,45,0.00,CLR,,0.00,WeatherDisplay:10.37,2013-06-02 15:31:00,
2013-06-02 08:36:00,76.5,53.6,29.67,West,276,0.0,0.0,45,0.00,CLR,,0.00,WeatherDisplay:10.37,2013-06-02 15:36:00,
2013-06-02 08:41:00,77.0,53.4,29.67,West,274,0.0,0.0,44,0.00,CLR,,0.00,WeatherDisplay:10.37,2013-06-02 15:41:00,
2013-06-02 08:46:00,77.4,53.8,29.67,West,274,0.0,0.0,44,0.00,CLR,,0.00,WeatherDisplay:10.37,2013-06-02 15:46:00,
2013-06-02 08:51:00,77.8,54.8,29.66,West,274,0.0,0.0,45,0.00,CLR,,0.00,WeatherDisplay:10.37,2013-06-02 15:51:00,
2013-06-02 08:56:00,78.3,53.3,29.66,SW,219,1.2,0.0,42,0.00,CLR,,0.00,WeatherDisplay:10.37,2013-06-02 15:56:00,
2013-06-02 09:01:00,78.9,53.2,29.66,SW,219,0.0,0.0,41,0.00,CLR,,0.00,WeatherDisplay:10.37,2013-06-02 16:01:00,
2013-06-02 09:06:00,79.5,54.4,29.66,WSW,255,0.0,0.0,42,0.00,CLR,,0.00,WeatherDisplay:10.37,2013-06-02 16:06:00,
2013-06-02 09:11:00,80.1,52.9,29.66,WSW,238,1.2,0.0,39,0.00,CLR,,0.00,WeatherDisplay:10.37,2013-06-02 16:11:00,
2013-06-02 09:16:00,80.5,54.6,29.66,WSW,246,0.0,0.0,41,0.00,CLR,,0.00,WeatherDisplay:10.37,2013-06-02 16:16:00,
2013-06-02 09:21:00,80.8,53.5,29.66,WSW,243,0.0,0.0,39,0.00,CLR,,0.00,WeatherDisplay:10.37,2013-06-02 16:21:00,
2013-06-02 09:26:00,81.2,53.9,29.66,WSW,248,0.0,0.0,39,0.00,CLR,,0.00,WeatherDisplay:10.37,2013-06-02 16:26:00,
2013-06-02 09:31:00,81.4,54.1,29.66,WSW,249,0.0,0.1,39,0.00,CLR,,0.00,WeatherDisplay:10.37,2013-06-02 16:31:00,
2013-06-02 09:36:00,81.9,53.8,29.66,WSW,240,1.2,0.0,38,0.00,CLR,,0.00,WeatherDisplay:10.37,2013-06-02 16:36:00,
2013-06-02 09:41:00,82.3,54.2,29.66,South,191,1.2,1.2,38,0.00,CLR,,0.00,WeatherDisplay:10.37,2013-06-02 16:41:00,
2013-06-02 09:46:00,82.7,53.8,29.66,West,260,1.0,1.0,37,0.00,CLR,,0.00,WeatherDisplay:10.37,2013-06-02 16:46:00,
2013-06-02 09:51:00,83.3,55.8,29.66,WNW,300,0.0,0.1,39,0.00,CLR,,0.00,WeatherDisplay:10.37,2013-06-02 16:51:00,
2013-06-02 09:56:00,83.7,54.7,29.66,ESE,103,1.2,0.0,37,0.00,CLR,,0.00,WeatherDisplay:10.37,2013-06-02 16:56:00,
2013-06-02 10:01:00,83.9,54.8,29.65,SW,218,0.0,0.0,37,0.00,CLR,,0.00,WeatherDisplay:10.37,2013-06-02 17:01:00,
2013-06-02 10:06:00,84.2,54.4,29.65,West,269,1.2,1.2,36,0.00,CLR,,0.00,WeatherDisplay:10.37,2013-06-02 17:06:00,
2013-06-02 10:11:00,84.7,54.8,29.66,WSW,243,1.0,1.0,36,0.00,CLR,,0.00,WeatherDisplay:10.37,2013-06-02 17:11:00,
2013-06-02 10:16:00,85.0,55.1,29.65,SE,127,0.0,0.0,36,0.00,CLR,,0.00,WeatherDisplay:10.37,2013-06-02 17:16:00,
2013-06-02 10:21:00,85.3,54.5,29.65,South,173,2.3,0.0,35,0.00,CLR,,0.00,WeatherDisplay:10.37,2013-06-02 17:21:00,
2013-06-02 10:26:00,85.6,54.0,29.65,South,169,0.0,0.0,34,0.00,CLR,,0.00,WeatherDisplay:10.37,2013-06-02 17:26:00,
2013-06-02 10:31:00,85.9,56.6,29.65,West,278,1.2,0.0,37,0.00,CLR,,0.00,WeatherDisplay:10.37,2013-06-02 17:31:00,
2013-06-02 10:36:00,86.2,54.5,29.65,NNW,341,0.0,0.0,34,0.00,CLR,,0.00,WeatherDisplay:10.37,2013-06-02 17:36:00,
2013-06-02 10:41:00,86.5,56.4,29.65,SSE,153,1.2,1.2,36,0.00,CLR,,0.00,WeatherDisplay:10.37,2013-06-02 17:41:00,
2013-06-02 10:46:00,86.8,53.4,29.65,WSW,243,0.0,0.0,32,0.00,CLR,,0.00,WeatherDisplay:10.37,2013-06-02 17:46:00,
2013-06-02 10:51:00,87.3,56.3,29.65,WNW,292,1.2,1.2,35,0.00,CLR,,0.00,WeatherDisplay:10.37,2013-06-02 17:51:00,
2013-06-02 10:56:00,87.8,57.5,29.65,WNW,297,0.0,0.0,36,0.00,CLR,,0.00,WeatherDisplay:10.37,2013-06-02 17:56:00,
2013-06-02 11:01:00,88.1,57.0,29.64,West,260,1.2,0.0,35,0.00,CLR,,0.00,WeatherDisplay:10.37,2013-06-02 18:01:00,
2013-06-02 11:06:00,88.1,57.0,29.64,SW,221,1.2,1.2,35,0.00,CLR,,0.00,WeatherDisplay:10.37,2013-06-02 18:06:00,
2013-06-02 11:11:00,88.3,57.2,29.64,West,269,1.2,0.0,35,0.00,CLR,,0.00,WeatherDisplay:10.37,2013-06-02 18:11:00,
2013-06-02 11:16:00,88.8,58.4,29.64,WNW,294,2.3,2.3,36,0.00,CLR,,0.00,WeatherDisplay:10.37,2013-06-02 18:16:00,
2013-06-02 11:21:00,89.3,58.1,29.64,West,277,3.5,3.5,35,0.00,CLR,,0.00,WeatherDisplay:10.37,2013-06-02 18:21:00,
2013-06-02 11:26:00,89.7,57.6,29.64,NW,324,1.2,1.2,34,0.00,CLR,,0.00,WeatherDisplay:10.37,2013-06-02 18:26:00,
2013-06-02 11:31:00,90.0,58.7,29.64,West,277,1.2,0.0,35,0.00,CLR,,0.00,WeatherDisplay:10.37,2013-06-02 18:31:00,
2013-06-02 11:36:00,90.2,57.2,29.64,WSW,249,1.0,1.0,33,0.00,CLR,,0.00,WeatherDisplay:10.37,2013-06-02 18:36:00,
2013-06-02 11:41:00,90.5,57.5,29.63,SW,231,1.2,0.0,33,0.00,CLR,,0.00,WeatherDisplay:10.37,2013-06-02 18:41:00,
2013-06-02 11:46:00,90.9,59.5,29.63,West,279,1.0,1.0,35,0.00,CLR,,0.00,WeatherDisplay:10.37,2013-06-02 18:46:00,
2013-06-02 11:51:00,91.5,56.6,29.63,SSE,159,1.2,1.2,31,0.00,CLR,,0.00,WeatherDisplay:10.37,2013-06-02 18:51:00,
2013-06-02 11:56:00,91.9,56.0,29.63,NNE,27,2.3,2.3,30,0.00,CLR,,0.00,WeatherDisplay:10.37,2013-06-02 18:56:00,
2013-06-02 12:01:00,92.5,56.6,29.63,West,281,1.0,1.0,30,0.00,CLR,,0.00,WeatherDisplay:10.37,2013-06-02 19:01:00,
2013-06-02 12:06:00,93.0,57.0,29.62,SW,215,3.5,3.5,30,0.00,CLR,,0.00,WeatherDisplay:10.37,2013-06-02 19:06:00,
2013-06-02 12:11:00,93.2,57.2,29.62,WSW,255,1.2,1.2,30,0.00,CLR,,0.00,WeatherDisplay:10.37,2013-06-02 19:11:00,
2013-06-02 12:16:00,93.7,56.6,29.62,WSW,238,1.2,1.2,29,0.00,CLR,,0.00,WeatherDisplay:10.37,2013-06-02 19:16:00,
2013-06-02 12:21:00,94.4,57.2,29.62,WSW,246,1.2,0.0,29,0.00,CLR,,0.00,WeatherDisplay:10.37,2013-06-02 19:21:00,
2013-06-02 12:26:00,95.1,57.8,29.61,WSW,246,1.0,1.0,29,0.00,CLR,,0.00,WeatherDisplay:10.37,2013-06-02 19:26:00,
2013-06-02 12:31:00,95.7,57.4,29.61,SSW,201,0.0,0.0,28,0.00,CLR,,0.00,WeatherDisplay:10.37,2013-06-02 19:31:00,
2013-06-02 12:36:00,96.3,58.9,29.61,WNW,297,2.3,2.3,29,0.00,CLR,,0.00,WeatherDisplay:10.37,2013-06-02 19:36:00,
2013-06-02 12:41:00,96.3,58.9,29.61,NNW,341,3.5,3.5,29,0.00,CLR,,0.00,WeatherDisplay:10.37,2013-06-02 19:41:00,
2013-06-02 12:46:00,96.2,58.8,29.61,WNW,285,2.3,2.3,29,0.00,CLR,,0.00,WeatherDisplay:10.37,2013-06-02 19:46:00,
2013-06-02 12:51:00,96.3,57.9,29.61,NW,311,2.3,2.3,28,0.00,CLR,,0.00,WeatherDisplay:10.37,2013-06-02 19:51:00,
2013-06-02 12:56:00,96.9,56.3,29.60,North,359,2.0,2.0,26,0.00,CLR,,0.00,WeatherDisplay:10.37,2013-06-02 19:56:00,
2013-06-02 13:01:00,97.5,55.8,29.60,NW,312,1.2,1.2,25,0.00,CLR,,0.00,WeatherDisplay:10.37,2013-06-02 20:01:00,
2013-06-02 13:06:00,97.7,51.2,29.60,West,272,3.5,3.5,21,0.00,CLR,,0.00,WeatherDisplay:10.37,2013-06-02 20:06:00,
2013-06-02 13:11:00,98.0,55.1,29.60,WNW,284,0.0,0.6,24,0.00,CLR,,0.00,WeatherDisplay:10.37,2013-06-02 20:11:00,
2013-06-02 13:16:00,98.4,54.2,29.60,WNW,288,1.0,1.0,23,0.00,CLR,,0.00,WeatherDisplay:10.37,2013-06-02 20:16:00,
2013-06-02 13:22:00,98.5,53.1,29.60,WNW,291,1.2,1.2,22,0.00,CLR,,0.00,WeatherDisplay:10.37,2013-06-02 20:22:00,
2013-06-02 13:27:00,98.4,54.2,29.60,West,267,1.2,1.2,23,0.00,CLR,,0.00,WeatherDisplay:10.37,2013-06-02 20:27:00,
2013-06-02 13:32:00,98.8,53.3,29.59,NE,52,3.5,3.5,22,0.00,CLR,,0.00,WeatherDisplay:10.37,2013-06-02 20:32:00,
2013-06-02 13:37:00,98.9,53.4,29.59,NNW,339,1.2,1.2,22,0.00,CLR,,0.00,WeatherDisplay:10.37,2013-06-02 20:37:00,
2013-06-02 13:42:00,98.9,54.6,29.59,West,280,0.0,0.0,23,0.00,CLR,,0.00,WeatherDisplay:10.37,2013-06-02 20:42:00,
2013-06-02 13:47:00,99.3,53.8,29.59,West,260,2.3,2.3,22,0.00,CLR,,0.00,WeatherDisplay:10.37,2013-06-02 20:47:00,
2013-06-02 13:52:00,99.8,54.2,29.59,SSW,194,0.0,0.0,22,0.00,CLR,,0.00,WeatherDisplay:10.37,2013-06-02 20:52:00,
2013-06-02 13:57:00,100.1,55.6,29.59,SW,235,3.5,3.5,23,0.00,CLR,,0.00,WeatherDisplay:10.37,2013-06-02 20:57:00,
2013-06-02 14:02:00,100.2,51.9,29.58,West,271,3.5,3.5,20,0.00,CLR,,0.00,WeatherDisplay:10.37,2013-06-02 21:02:00,
2013-06-02 14:07:00,99.8,54.2,29.58,WSW,240,1.2,1.2,22,0.00,CLR,,0.00,WeatherDisplay:10.37,2013-06-02 21:07:00,
2013-06-02 14:12:00,99.9,53.0,29.58,NNE,12,0.0,0.0,21,0.00,CLR,,0.00,WeatherDisplay:10.37,2013-06-02 21:12:00,
2013-06-02 14:17:00,100.6,54.8,29.58,North,356,1.0,1.0,22,0.00,CLR,,0.00,WeatherDisplay:10.37,2013-06-02 21:17:00,
2013-06-02 14:22:00,100.5,53.5,29.58,WSW,245,3.5,3.5,21,0.00,CLR,,0.00,WeatherDisplay:10.37,2013-06-02 21:22:00,
2013-06-02 14:27:00,100.8,52.4,29.58,WNW,290,1.2,1.2,20,0.00,CLR,,0.00,WeatherDisplay:10.37,2013-06-02 21:27:00,
2013-06-02 14:32:00,101.3,54.1,29.57,South,170,0.0,0.0,21,0.00,CLR,,0.00,WeatherDisplay:10.37,2013-06-02 21:32:00,
2013-06-02 14:37:00,101.3,54.1,29.57,West,278,3.5,3.5,21,0.00,CLR,,0.00,WeatherDisplay:10.37,2013-06-02 21:37:00,
2013-06-02 14:42:00,100.9,52.5,29.57,WNW,293,2.3,2.3,20,0.00,CLR,,0.00,WeatherDisplay:10.37,2013-06-02 21:42:00,
2013-06-02 14:47:00,100.9,52.5,29.57,WNW,283,1.2,1.2,20,0.00,CLR,,0.00,WeatherDisplay:10.37,2013-06-02 21:47:00,
2013-06-02 14:52:00,101.4,55.5,29.57,WNW,303,2.3,2.3,22,0.00,CLR,,0.00,WeatherDisplay:10.37,2013-06-02 21:52:00,
2013-06-02 14:57:00,101.6,56.9,29.57,West,280,1.2,1.2,23,0.00,CLR,,0.00,WeatherDisplay:10.37,2013-06-02 21:57:00,
2013-06-02 15:02:00,101.8,51.8,29.56,NNE,18,2.3,2.3,19,0.00,CLR,,0.00,WeatherDisplay:10.37,2013-06-02 22:02:00,
2013-06-02 15:07:00,101.3,49.9,29.56,West,274,3.5,3.5,18,0.00,CLR,,0.00,WeatherDisplay:10.37,2013-06-02 22:07:00,
2013-06-02 15:12:00,101.5,53.0,29.56,North,5,3.0,3.0,20,0.00,CLR,,0.00,WeatherDisplay:10.37,2013-06-02 22:12:00,
2013-06-02 15:17:00,101.8,51.8,29.56,SSE,165,3.5,3.5,19,0.00,CLR,,0.00,WeatherDisplay:10.37,2013-06-02 22:17:00,
2013-06-02 15:22:00,102.4,52.3,29.56,SE,142,2.3,2.3,19,0.00,CLR,,0.00,WeatherDisplay:10.37,2013-06-02 22:22:00,
2013-06-02 15:27:00,102.3,53.6,29.55,NNE,23,1.2,1.2,20,0.00,CLR,,0.00,WeatherDisplay:10.37,2013-06-02 22:27:00,
2013-06-02 15:32:00,101.9,51.9,29.55,NNW,328,1.2,1.2,19,0.00,CLR,,0.00,WeatherDisplay:10.37,2013-06-02 22:32:00,
2013-06-02 15:37:00,102.0,53.4,29.55,West,264,3.5,3.5,20,0.00,CLR,,0.00,WeatherDisplay:10.37,2013-06-02 22:37:00,
2013-06-02 15:42:00,101.2,52.7,29.55,WSW,257,2.3,2.3,20,0.00,CLR,,0.00,WeatherDisplay:10.37,2013-06-02 22:42:00,
2013-06-02 15:47:00,101.6,55.7,29.55,South,188,1.2,1.2,22,0.00,CLR,,0.00,WeatherDisplay:10.37,2013-06-02 22:47:00,
2013-06-02 15:52:00,101.4,52.9,29.55,NNW,342,3.5,3.5,20,0.00,CLR,,0.00,WeatherDisplay:10.37,2013-06-02 22:52:00,
2013-06-02 15:57:00,101.4,54.2,29.55,SW,233,2.3,2.3,21,0.00,CLR,,0.00,WeatherDisplay:10.37,2013-06-02 22:57:00,
2013-06-02 16:02:00,101.8,54.5,29.55,WNW,296,2.3,2.3,21,0.00,CLR,,0.00,WeatherDisplay:10.37,2013-06-02 23:02:00,
2013-06-02 16:07:00,101.5,54.3,29.54,North,352,3.5,3.5,21,0.00,CLR,,0.00,WeatherDisplay:10.37,2013-06-02 23:07:00,
2013-06-02 16:12:00,101.7,55.7,29.54,West,278,3.5,3.5,22,0.00,CLR,,0.00,WeatherDisplay:10.37,2013-06-02 23:12:00,
2013-06-02 16:17:00,101.9,54.6,29.54,WNW,283,3.5,3.5,21,0.00,CLR,,0.00,WeatherDisplay:10.37,2013-06-02 23:17:00,
2013-06-02 16:22:00,101.9,54.6,29.54,West,259,2.3,2.3,21,0.00,CLR,,0.00,WeatherDisplay:10.37,2013-06-02 23:22:00,
2013-06-02 16:27:00,102.1,56.1,29.54,South,176,1.2,0.0,22,0.00,CLR,,0.00,WeatherDisplay:10.37,2013-06-02 23:27:00,
2013-06-02 16:32:00,102.7,55.3,29.54,SW,217,3.5,3.5,21,0.00,CLR,,0.00,WeatherDisplay:10.37,2013-06-02 23:32:00,
2013-06-02 16:37:00,101.9,54.6,29.53,WNW,284,1.2,1.2,21,0.00,CLR,,0.00,WeatherDisplay:10.37,2013-06-02 23:37:00,
2013-06-02 16:42:00,101.8,55.8,29.53,West,262,3.5,3.5,22,0.00,CLR,,0.00,WeatherDisplay:10.37,2013-06-02 23:42:00,
2013-06-02 16:47:00,101.6,54.4,29.53,ESE,114,3.5,3.5,21,0.00,CLR,,0.00,WeatherDisplay:10.37,2013-06-02 23:47:00,
2013-06-02 16:52:00,101.6,53.0,29.53,NE,35,3.5,3.5,20,0.00,CLR,,0.00,WeatherDisplay:10.37,2013-06-02 23:52:00,
2013-06-02 16:57:00,101.3,54.1,29.53,West,273,2.3,2.3,21,0.00,CLR,,0.00,WeatherDisplay:10.37,2013-06-02 23:57:00,
2013-06-02 17:02:00,101.7,53.1,29.52,NW,326,3.5,3.5,20,0.00,CLR,,0.00,WeatherDisplay:10.37,2013-06-03 00:02:00,
2013-06-02 17:07:00,102.4,53.7,29.52,WNW,288,2.3,2.3,20,0.00,CLR,,0.00,WeatherDisplay:10.37,2013-06-03 00:07:00,
2013-06-02 17:12:00,102.6,51.0,29.52,West,262,2.3,2.3,18,0.00,CLR,,0.00,WeatherDisplay:10.37,2013-06-03 00:12:00,
2013-06-02 17:17:00,102.0,50.5,29.52,WNW,291,3.5,3.5,18,0.00,CLR,,0.00,WeatherDisplay:10.37,2013-06-03 00:17:00,
2013-06-02 17:22:00,101.9,51.9,29.52,West,266,2.3,2.3,19,0.00,CLR,,0.00,WeatherDisplay:10.37,2013-06-03 00:22:00,
2013-06-02 17:27:00,102.2,50.7,29.52,SW,226,4.6,4.6,18,0.00,CLR,,0.00,WeatherDisplay:10.37,2013-06-03 00:27:00,
2013-06-02 17:32:00,102.2,49.1,29.52,North,360,2.3,2.3,17,0.00,CLR,,0.00,WeatherDisplay:10.37,2013-06-03 00:32:00,
2013-06-02 17:37:00,101.7,48.7,29.52,NW,323,3.5,3.5,17,0.00,CLR,,0.00,WeatherDisplay:10.37,2013-06-03 00:37:00,
2013-06-02 17:42:00,101.8,47.2,29.52,SSE,150,3.5,3.5,16,0.00,CLR,,0.00,WeatherDisplay:10.37,2013-06-03 00:42:00,
2013-06-02 17:47:00,102.2,49.1,29.52,WNW,301,1.2,1.2,17,0.00,CLR,,0.00,WeatherDisplay:10.37,2013-06-03 00:47:00,
2013-06-02 17:52:00,102.4,47.7,29.52,NNE,16,3.0,3.0,16,0.00,CLR,,0.00,WeatherDisplay:10.37,2013-06-03 00:52:00,
2013-06-02 17:57:00,102.4,47.7,29.51,NNE,31,2.3,2.3,16,0.00,CLR,,0.00,WeatherDisplay:10.37,2013-06-03 00:57:00,
2013-06-02 18:02:00,102.8,49.6,29.52,North,354,3.0,3.0,17,0.00,CLR,,0.00,WeatherDisplay:10.37,2013-06-03 01:02:00,
2013-06-02 18:07:00,102.7,51.1,29.52,West,278,2.3,2.3,18,0.00,CLR,,0.00,WeatherDisplay:10.37,2013-06-03 01:07:00,
2013-06-02 18:12:00,102.5,50.9,29.52,West,279,3.5,3.5,18,0.00,CLR,,0.00,WeatherDisplay:10.37,2013-06-03 01:12:00,
2013-06-02 18:17:00,102.6,51.0,29.52,South,169,1.2,1.2,18,0.00,CLR,,0.00,WeatherDisplay:10.37,2013-06-03 01:17:00,
2013-06-02 18:22:00,102.3,50.8,29.52,SE,135,2.3,2.3,18,0.00,CLR,,0.00,WeatherDisplay:10.37,2013-06-03 01:22:00,
2013-06-02 18:27:00,102.3,50.8,29.52,NW,315,1.2,1.2,18,0.00,CLR,,0.00,WeatherDisplay:10.37,2013-06-03 01:27:00,
2013-06-02 18:32:00,101.9,50.4,29.52,West,262,2.3,2.3,18,0.00,CLR,,0.00,WeatherDisplay:10.37,2013-06-03 01:32:00,
2013-06-02 18:37:00,101.9,50.4,29.52,NNW,345,1.2,1.2,18,0.00,CLR,,0.00,WeatherDisplay:10.37,2013-06-03 01:37:00,
2013-06-02 18:42:00,101.5,51.6,29.52,West,260,2.3,2.3,19,0.00,CLR,,0.00,WeatherDisplay:10.37,2013-06-03 01:42:00,
2013-06-02 18:47:00,101.3,51.4,29.52,NW,304,0.0,0.0,19,0.00,CLR,,0.00,WeatherDisplay:10.37,2013-06-03 01:47:00,
2013-06-02 18:52:00,101.1,48.3,29.52,North,356,1.2,0.0,17,0.00,CLR,,0.00,WeatherDisplay:10.37,2013-06-03 01:52:00,
2013-06-02 18:57:00,101.1,46.6,29.52,WSW,257,1.2,0.0,16,0.00,CLR,,0.00,WeatherDisplay:10.37,2013-06-03 01:57:00,
2013-06-02 19:02:00,100.5,47.8,29.52,SW,221,1.2,0.0,17,0.00,CLR,,0.00,WeatherDisplay:10.37,2013-06-03 02:02:00,
2013-06-02 19:07:00,99.4,48.4,29.52,North,358,1.2,1.2,18,0.00,CLR,,0.00,WeatherDisplay:10.37,2013-06-03 02:07:00,
2013-06-02 19:12:00,98.3,50.3,29.52,North,356,1.2,0.0,20,0.00,CLR,,0.00,WeatherDisplay:10.37,2013-06-03 02:12:00,
2013-06-02 19:17:00,97.5,48.3,29.52,West,269,0.0,0.0,19,0.00,CLR,,0.00,WeatherDisplay:10.37,2013-06-03 02:17:00,
2013-06-02 19:22:00,96.9,50.5,29.52,West,269,0.0,0.0,21,0.00,CLR,,0.00,WeatherDisplay:10.37,2013-06-03 02:22:00,
2013-06-02 19:27:00,96.4,52.6,29.52,West,269,0.0,0.0,23,0.00,CLR,,0.00,WeatherDisplay:10.37,2013-06-03 02:27:00,
2013-06-02 19:32:00,95.7,52.0,29.53,West,269,0.0,0.0,23,0.00,CLR,,0.00,WeatherDisplay:10.37,2013-06-03 02:32:00,
2013-06-02 19:37:00,95.2,51.6,29.52,West,269,0.0,0.0,23,0.00,CLR,,0.00,WeatherDisplay:10.37,2013-06-03 02:37:00,
2013-06-02 19:42:00,94.7,54.5,29.52,West,269,0.0,0.0,26,0.00,CLR,,0.00,WeatherDisplay:10.37,2013-06-03 02:42:00,
2013-06-02 19:47:00,94.0,55.9,29.52,West,269,0.0,0.0,28,0.00,CLR,,0.00,WeatherDisplay:10.37,2013-06-03 02:47:00,
2013-06-02 19:52:00,93.1,55.2,29.53,West,269,0.0,0.0,28,0.00,CLR,,0.00,WeatherDisplay:10.37,2013-06-03 02:52:00,
2013-06-02 19:57:00,92.2,54.4,29.53,West,269,0.0,0.0,28,0.00,CLR,,0.00,WeatherDisplay:10.37,2013-06-03 02:57:00,
2013-06-02 20:02:00,91.2,54.5,29.53,SSE,156,1.2,1.2,29,0.00,CLR,,0.00,WeatherDisplay:10.37,2013-06-03 03:02:00,
2013-06-02 20:07:00,90.4,55.6,29.53,NW,324,0.0,0.0,31,0.00,CLR,,0.00,WeatherDisplay:10.37,2013-06-03 03:07:00,
2013-06-02 20:12:00,89.4,53.9,29.54,SW,226,2.0,2.0,30,0.00,CLR,,0.00,WeatherDisplay:10.37,2013-06-03 03:12:00,
2013-06-02 20:17:00,88.6,54.1,29.54,ESE,108,0.0,0.1,31,0.00,CLR,,0.00,WeatherDisplay:10.37,2013-06-03 03:17:00,
2013-06-02 20:22:00,87.8,53.4,29.54,SSE,156,2.3,2.3,31,0.00,CLR,,0.00,WeatherDisplay:10.37,2013-06-03 03:22:00,
2013-06-02 20:27:00,87.1,53.7,29.54,WSW,246,2.3,2.3,32,0.00,CLR,,0.00,WeatherDisplay:10.37,2013-06-03 03:27:00,
2013-06-02 20:32:00,86.4,53.1,29.55,ENE,78,0.0,0.1,32,0.00,CLR,,0.00,WeatherDisplay:10.37,2013-06-03 03:32:00,
2013-06-02 20:37:00,85.8,54.2,29.55,SE,141,1.2,0.0,34,0.00,CLR,,0.00,WeatherDisplay:10.37,2013-06-03 03:37:00,
2013-06-02 20:42:00,85.1,54.4,29.55,SE,142,0.0,0.0,35,0.00,CLR,,0.00,WeatherDisplay:10.37,2013-06-03 03:42:00,
2013-06-02 20:47:00,84.5,55.4,29.55,SSW,207,0.0,0.0,37,0.00,CLR,,0.00,WeatherDisplay:10.37,2013-06-03 03:47:00,
2013-06-02 20:52:00,83.8,54.7,29.56,SSW,201,0.0,0.0,37,0.00,CLR,,0.00,WeatherDisplay:10.37,2013-06-03 03:52:00,
2013-06-02 20:57:00,83.1,54.1,29.56,SW,215,0.0,0.0,37,0.00,CLR,,0.00,WeatherDisplay:10.37,2013-06-03 03:57:00,
2013-06-02 21:01:00,82.7,54.5,29.56,West,259,1.2,0.0,38,0.00,CLR,,0.00,WeatherDisplay:10.37,2013-06-03 04:01:00,
2013-06-02 21:02:00,82.7,54.5,29.56,WSW,257,0.0,0.0,38,0.00,CLR,,0.00,WeatherDisplay:10.37,2013-06-03 04:02:00,
2013-06-02 21:07:00,82.0,53.9,29.57,East,88,0.0,0.0,38,0.00,CLR,,0.00,WeatherDisplay:10.37,2013-06-03 04:07:00,
2013-06-02 21:12:00,81.5,54.2,29.57,East,87,0.0,0.0,39,0.00,CLR,,0.00,WeatherDisplay:10.37,2013-06-03 04:12:00,
2013-06-02 21:17:00,81.0,53.7,29.57,East,87,0.0,0.0,39,0.00,CLR,,0.00,WeatherDisplay:10.37,2013-06-03 04:17:00,
2013-06-02 21:22:00,80.7,53.4,29.57,West,268,0.0,0.1,39,0.00,CLR,,0.00,WeatherDisplay:10.37,2013-06-03 04:22:00,
2013-06-02 21:27:00,80.4,53.9,29.58,West,269,0.0,0.0,40,0.00,CLR,,0.00,WeatherDisplay:10.37,2013-06-03 04:27:00,
2013-06-02 21:32:00,80.1,53.6,29.58,West,269,1.2,0.0,40,0.00,CLR,,0.00,WeatherDisplay:10.37,2013-06-03 04:32:00,
2013-06-02 21:37:00,80.0,53.5,29.58,West,269,0.0,0.0,40,0.00,CLR,,0.00,WeatherDisplay:10.37,2013-06-03 04:37:00,
2013-06-02 21:42:00,79.9,52.7,29.59,West,268,0.0,0.0,39,0.00,CLR,,0.00,WeatherDisplay:10.37,2013-06-03 04:42:00,
2013-06-02 21:47:00,79.9,52.7,29.59,ESE,103,1.2,1.2,39,0.00,CLR,,0.00,WeatherDisplay:10.37,2013-06-03 04:47:00,
2013-06-02 21:52:00,80.0,52.8,29.59,ESE,105,0.0,0.0,39,0.00,CLR,,0.00,WeatherDisplay:10.37,2013-06-03 04:52:00,
2013-06-02 21:57:00,79.9,52.7,29.60,ESE,106,0.0,0.0,39,0.00,CLR,,0.00,WeatherDisplay:10.37,2013-06-03 04:57:00,
2013-06-02 22:03:00,79.9,52.7,29.60,ESE,118,1.2,0.0,39,0.00,CLR,,0.00,WeatherDisplay:10.37,2013-06-03 05:03:00,
2013-06-02 22:08:00,79.8,52.6,29.60,ESE,120,0.0,0.0,39,0.00,CLR,,0.00,WeatherDisplay:10.37,2013-06-03 05:08:00,
2013-06-02 22:13:00,79.4,52.3,29.60,SE,125,0.0,0.0,39,0.00,CLR,,0.00,WeatherDisplay:10.37,2013-06-03 05:13:00,
2013-06-02 22:18:00,79.1,52.0,29.60,SE,125,0.0,0.0,39,0.00,CLR,,0.00,WeatherDisplay:10.37,2013-06-03 05:18:00,
2013-06-02 22:23:00,78.8,51.7,29.60,SE,125,0.0,0.0,39,0.00,CLR,,0.00,WeatherDisplay:10.37,2013-06-03 05:23:00,
2013-06-02 22:28:00,78.7,52.3,29.60,SE,126,0.0,0.0,40,0.00,CLR,,0.00,WeatherDisplay:10.37,2013-06-03 05:28:00,
2013-06-02 22:33:00,78.4,52.1,29.60,SE,125,0.0,0.0,40,0.00,CLR,,0.00,WeatherDisplay:10.37,2013-06-03 05:33:00,
2013-06-02 22:38:00,78.0,52.4,29.60,SE,126,0.0,0.0,41,0.00,CLR,,0.00,WeatherDisplay:10.37,2013-06-03 05:38:00,
2013-06-02 22:43:00,77.7,52.1,29.60,SE,126,0.0,0.0,41,0.00,CLR,,0.00,WeatherDisplay:10.37,2013-06-03 05:43:00,
2013-06-02 22:48:00,77.4,52.5,29.60,SE,126,1.2,0.0,42,0.00,CLR,,0.00,WeatherDisplay:10.37,2013-06-03 05:48:00,
2013-06-02 22:53:00,77.4,51.9,29.60,SE,125,0.0,0.0,41,0.00,CLR,,0.00,WeatherDisplay:10.37,2013-06-03 05:53:00,
2013-06-02 22:58:00,77.1,51.6,29.60,SE,126,0.0,0.0,41,0.00,CLR,,0.00,WeatherDisplay:10.37,2013-06-03 05:58:00,
2013-06-02 23:03:00,77.0,52.1,29.60,SE,125,0.0,0.0,42,0.00,CLR,,0.00,WeatherDisplay:10.37,2013-06-03 06:03:00,
2013-06-02 23:08:00,76.8,52.0,29.60,SE,126,0.0,0.0,42,0.00,CLR,,0.00,WeatherDisplay:10.37,2013-06-03 06:08:00,
2013-06-02 23:13:00,76.5,51.7,29.60,SE,125,0.0,0.0,42,0.00,CLR,,0.00,WeatherDisplay:10.37,2013-06-03 06:13:00,
2013-06-02 23:18:00,76.3,52.2,29.60,SE,125,0.0,0.0,43,0.00,CLR,,0.00,WeatherDisplay:10.37,2013-06-03 06:18:00,
2013-06-02 23:23:00,76.1,52.0,29.61,SE,126,0.0,0.0,43,0.00,CLR,,0.00,WeatherDisplay:10.37,2013-06-03 06:23:00,
2013-06-02 23:28:00,75.8,51.7,29.61,SE,126,0.0,0.0,43,0.00,CLR,,0.00,WeatherDisplay:10.37,2013-06-03 06:28:00,
2013-06-02 23:33:00,75.6,51.5,29.60,SE,125,0.0,0.0,43,0.00,CLR,,0.00,WeatherDisplay:10.37,2013-06-03 06:33:00,
2013-06-02 23:38:00,75.4,52.6,29.60,SE,126,0.0,0.0,45,0.00,CLR,,0.00,WeatherDisplay:10.37,2013-06-03 06:38:00,
2013-06-02 23:43:00,75.2,51.8,29.61,SE,126,0.0,0.0,44,0.00,CLR,,0.00,WeatherDisplay:10.37,2013-06-03 06:43:00,
2013-06-02 23:48:00,74.9,52.1,29.60,SE,126,0.0,0.0,45,0.00,CLR,,0.00,WeatherDisplay:10.37,2013-06-03 06:48:00,
2013-06-02 23:53:00,74.6,51.9,29.60,SE,126,0.0,0.0,45,0.00,CLR,,0.00,WeatherDisplay:10.37,2013-06-03 06:53:00,
2013-06-02 23:58:00,74.4,52.3,29.61,SE,125,0.0,0.0,46,0.00,CLR,,0.00,WeatherDisplay:10.37,2013-06-03 06:58:00,